SE-0029 weather

Dorotea flygfält
Dorotea, Västerbottens län, Sweden

Public forecast

Using degrees Celsius for public forecast. Weather courtesy of forecast.io.

METAR (pilot weather report)

Closest report is Vilhelmina Airport, 20.9 nm (38.7 km) NNE. Retrieved 2019/08/18 21:20 UTC (0 seconds ago):

ESNV 182120Z AUTO 07004KT 9999 BKN016/// 13/11 Q1001

TAF (pilot weather forecast)

Forecast is more than 12 hours old.

Closest forecast is Kramfors Sollefteå Airport, 80.6 nm (149.2 km) SSE. Retrieved 2015/10/08 12:00 UTC (4 years ago):

TAF ESNK 081130Z 0812/0824 18005KT CAVOK PROB40 0820/0824 4000 BR